sensor_id;sensor_type;location;lat;lon;timestamp;temperature;humidity
76102;SHT30;64830;46.910;6.354;2023-07-13T00:00:36;18.77;77.37
76102;SHT30;64830;46.910;6.354;2023-07-13T00:03:02;18.78;77.38
76102;SHT30;64830;46.910;6.354;2023-07-13T00:05:28;18.73;77.33
76102;SHT30;64830;46.910;6.354;2023-07-13T00:07:53;18.73;77.57
76102;SHT30;64830;46.910;6.354;2023-07-13T00:10:20;18.67;77.49
76102;SHT30;64830;46.910;6.354;2023-07-13T00:12:45;18.64;77.35
76102;SHT30;64830;46.910;6.354;2023-07-13T00:15:16;18.63;77.88
76102;SHT30;64830;46.910;6.354;2023-07-13T00:17:46;18.60;78.32
76102;SHT30;64830;46.910;6.354;2023-07-13T00:20:12;18.59;78.72
76102;SHT30;64830;46.910;6.354;2023-07-13T00:22:38;18.56;78.61
76102;SHT30;64830;46.910;6.354;2023-07-13T00:25:04;18.55;78.45
76102;SHT30;64830;46.910;6.354;2023-07-13T00:27:29;18.56;78.69
76102;SHT30;64830;46.910;6.354;2023-07-13T00:29:58;18.52;78.85
76102;SHT30;64830;46.910;6.354;2023-07-13T00:32:24;18.49;78.65
76102;SHT30;64830;46.910;6.354;2023-07-13T00:34:51;18.50;78.63
76102;SHT30;64830;46.910;6.354;2023-07-13T00:37:16;18.49;78.75
76102;SHT30;64830;46.910;6.354;2023-07-13T00:39:42;18.43;78.53
76102;SHT30;64830;46.910;6.354;2023-07-13T00:42:07;18.45;78.50
76102;SHT30;64830;46.910;6.354;2023-07-13T00:44:33;18.45;78.68
76102;SHT30;64830;46.910;6.354;2023-07-13T00:46:58;18.43;78.58
76102;SHT30;64830;46.910;6.354;2023-07-13T00:49:26;18.39;78.78
76102;SHT30;64830;46.910;6.354;2023-07-13T00:51:55;18.38;79.18
76102;SHT30;64830;46.910;6.354;2023-07-13T00:54:32;18.35;79.13
76102;SHT30;64830;46.910;6.354;2023-07-13T00:57:00;18.31;79.49
76102;SHT30;64830;46.910;6.354;2023-07-13T00:59:26;18.28;79.46
76102;SHT30;64830;46.910;6.354;2023-07-13T01:01:52;18.25;79.51
76102;SHT30;64830;46.910;6.354;2023-07-13T01:04:18;18.22;79.68
76102;SHT30;64830;46.910;6.354;2023-07-13T01:06:45;18.22;79.67
76102;SHT30;64830;46.910;6.354;2023-07-13T01:09:12;18.22;80.09
76102;SHT30;64830;46.910;6.354;2023-07-13T01:11:40;18.25;79.66
76102;SHT30;64830;46.910;6.354;2023-07-13T01:14:06;18.25;79.45
76102;SHT30;64830;46.910;6.354;2023-07-13T01:16:34;18.25;78.71
76102;SHT30;64830;46.910;6.354;2023-07-13T01:19:00;18.14;78.46
76102;SHT30;64830;46.910;6.354;2023-07-13T01:21:29;18.07;78.70
76102;SHT30;64830;46.910;6.354;2023-07-13T01:23:55;18.05;78.90
76102;SHT30;64830;46.910;6.354;2023-07-13T01:26:21;18.02;78.65
76102;SHT30;64830;46.910;6.354;2023-07-13T01:28:47;18.04;78.68
76102;SHT30;64830;46.910;6.354;2023-07-13T01:31:12;18.07;79.06
76102;SHT30;64830;46.910;6.354;2023-07-13T01:33:41;18.07;78.96
76102;SHT30;64830;46.910;6.354;2023-07-13T01:36:07;18.07;78.49
76102;SHT30;64830;46.910;6.354;2023-07-13T01:38:35;18.11;78.81
76102;SHT30;64830;46.910;6.354;2023-07-13T01:41:01;18.12;78.69
76102;SHT30;64830;46.910;6.354;2023-07-13T01:43:27;18.18;78.64
76102;SHT30;64830;46.910;6.354;2023-07-13T01:45:52;18.16;78.37
76102;SHT30;64830;46.910;6.354;2023-07-13T01:48:18;18.14;78.38
76102;SHT30;64830;46.910;6.354;2023-07-13T01:50:44;18.07;78.65
76102;SHT30;64830;46.910;6.354;2023-07-13T01:53:09;18.07;79.06
76102;SHT30;64830;46.910;6.354;2023-07-13T01:55:35;18.07;78.87
76102;SHT30;64830;46.910;6.354;2023-07-13T01:58:02;18.00;78.67
76102;SHT30;64830;46.910;6.354;2023-07-13T02:00:28;17.96;78.46
76102;SHT30;64830;46.910;6.354;2023-07-13T02:02:53;17.94;78.65
76102;SHT30;64830;46.910;6.354;2023-07-13T02:05:19;17.90;78.65
76102;SHT30;64830;46.910;6.354;2023-07-13T02:07:45;17.91;78.79
76102;SHT30;64830;46.910;6.354;2023-07-13T02:10:10;17.91;78.57
76102;SHT30;64830;46.910;6.354;2023-07-13T02:12:36;17.90;78.72
76102;SHT30;64830;46.910;6.354;2023-07-13T02:15:02;17.91;78.50
76102;SHT30;64830;46.910;6.354;2023-07-13T02:17:28;17.90;77.89
76102;SHT30;64830;46.910;6.354;2023-07-13T02:19:53;17.88;77.54
76102;SHT30;64830;46.910;6.354;2023-07-13T02:22:19;17.87;77.61
76102;SHT30;64830;46.910;6.354;2023-07-13T02:24:45;17.83;77.41
76102;SHT30;64830;46.910;6.354;2023-07-13T02:27:10;17.76;77.43
76102;SHT30;64830;46.910;6.354;2023-07-13T02:29:36;17.76;77.49
76102;SHT30;64830;46.910;6.354;2023-07-13T02:32:01;17.73;77.58
76102;SHT30;64830;46.910;6.354;2023-07-13T02:34:27;17.77;77.95
76102;SHT30;64830;46.910;6.354;2023-07-13T02:36:52;17.74;78.38
76102;SHT30;64830;46.910;6.354;2023-07-13T02:39:17;17.74;78.65
76102;SHT30;64830;46.910;6.354;2023-07-13T02:41:43;17.67;78.50
76102;SHT30;64830;46.910;6.354;2023-07-13T02:44:08;17.66;78.50
76102;SHT30;64830;46.910;6.354;2023-07-13T02:46:36;17.63;78.25
76102;SHT30;64830;46.910;6.354;2023-07-13T02:49:03;17.62;77.99
76102;SHT30;64830;46.910;6.354;2023-07-13T02:51:29;17.57;77.87
76102;SHT30;64830;46.910;6.354;2023-07-13T02:53:54;17.53;77.71
76102;SHT30;64830;46.910;6.354;2023-07-13T02:56:25;17.52;77.73
76102;SHT30;64830;46.910;6.354;2023-07-13T02:58:50;17.53;77.21
76102;SHT30;64830;46.910;6.354;2023-07-13T03:01:16;17.47;77.24
76102;SHT30;64830;46.910;6.354;2023-07-13T03:03:46;17.49;76.86
76102;SHT30;64830;46.910;6.354;2023-07-13T03:06:11;17.45;76.56
76102;SHT30;64830;46.910;6.354;2023-07-13T03:08:37;17.39;76.28
76102;SHT30;64830;46.910;6.354;2023-07-13T03:11:06;17.40;76.41
76102;SHT30;64830;46.910;6.354;2023-07-13T03:13:32;17.35;76.38
76102;SHT30;64830;46.910;6.354;2023-07-13T03:15:58;17.35;76.38
76102;SHT30;64830;46.910;6.354;2023-07-13T03:18:25;17.32;76.33
76102;SHT30;64830;46.910;6.354;2023-07-13T03:20:50;17.31;76.15
76102;SHT30;64830;46.910;6.354;2023-07-13T03:23:16;17.26;76.16
76102;SHT30;64830;46.910;6.354;2023-07-13T03:25:42;17.22;76.35
76102;SHT30;64830;46.910;6.354;2023-07-13T03:28:07;17.24;76.54
76102;SHT30;64830;46.910;6.354;2023-07-13T03:30:33;17.22;76.63
76102;SHT30;64830;46.910;6.354;2023-07-13T03:32:58;17.25;76.78
76102;SHT30;64830;46.910;6.354;2023-07-13T03:35:23;17.22;76.44
76102;SHT30;64830;46.910;6.354;2023-07-13T03:37:49;17.21;76.60
76102;SHT30;64830;46.910;6.354;2023-07-13T03:40:14;17.24;76.52
76102;SHT30;64830;46.910;6.354;2023-07-13T03:42:39;17.19;76.53
76102;SHT30;64830;46.910;6.354;2023-07-13T03:45:05;17.19;76.61
76102;SHT30;64830;46.910;6.354;2023-07-13T03:47:31;17.21;76.87
76102;SHT30;64830;46.910;6.354;2023-07-13T03:49:56;17.21;76.33
76102;SHT30;64830;46.910;6.354;2023-07-13T03:52:22;17.15;75.81
76102;SHT30;64830;46.910;6.354;2023-07-13T03:54:47;17.08;75.78
76102;SHT30;64830;46.910;6.354;2023-07-13T03:57:12;17.05;75.04
76102;SHT30;64830;46.910;6.354;2023-07-13T03:59:38;17.00;75.34
76102;SHT30;64830;46.910;6.354;2023-07-13T04:02:03;16.95;75.21
76102;SHT30;64830;46.910;6.354;2023-07-13T04:04:30;16.88;75.59
76102;SHT30;64830;46.910;6.354;2023-07-13T04:06:57;16.84;75.34
76102;SHT30;64830;46.910;6.354;2023-07-13T04:09:24;16.85;75.56
76102;SHT30;64830;46.910;6.354;2023-07-13T04:11:49;16.85;75.64
76102;SHT30;64830;46.910;6.354;2023-07-13T04:14:15;16.85;75.57
76102;SHT30;64830;46.910;6.354;2023-07-13T04:16:40;16.80;75.59
76102;SHT30;64830;46.910;6.354;2023-07-13T04:19:06;16.79;75.80
76102;SHT30;64830;46.910;6.354;2023-07-13T04:21:31;16.76;76.15
76102;SHT30;64830;46.910;6.354;2023-07-13T04:23:57;16.74;76.30
76102;SHT30;64830;46.910;6.354;2023-07-13T04:26:22;16.73;76.53
76102;SHT30;64830;46.910;6.354;2023-07-13T04:28:49;16.73;76.41
76102;SHT30;64830;46.910;6.354;2023-07-13T04:31:14;16.73;76.38
76102;SHT30;64830;46.910;6.354;2023-07-13T04:33:40;16.76;76.53
76102;SHT30;64830;46.910;6.354;2023-07-13T04:36:06;16.81;76.69
76102;SHT30;64830;46.910;6.354;2023-07-13T04:38:32;16.79;76.72
76102;SHT30;64830;46.910;6.354;2023-07-13T04:41:03;16.76;76.54
76102;SHT30;64830;46.910;6.354;2023-07-13T04:43:29;16.76;76.46
76102;SHT30;64830;46.910;6.354;2023-07-13T04:45:56;16.79;76.59
76102;SHT30;64830;46.910;6.354;2023-07-13T04:48:22;16.81;76.57
76102;SHT30;64830;46.910;6.354;2023-07-13T04:50:54;16.81;76.38
76102;SHT30;64830;46.910;6.354;2023-07-13T04:53:20;16.80;76.32
76102;SHT30;64830;46.910;6.354;2023-07-13T04:55:46;16.79;76.28
76102;SHT30;64830;46.910;6.354;2023-07-13T04:58:12;16.79;76.47
76102;SHT30;64830;46.910;6.354;2023-07-13T05:00:39;16.81;75.92
76102;SHT30;64830;46.910;6.354;2023-07-13T05:03:04;16.74;75.59
76102;SHT30;64830;46.910;6.354;2023-07-13T05:05:30;16.74;75.32
76102;SHT30;64830;46.910;6.354;2023-07-13T05:07:55;16.76;75.64
76102;SHT30;64830;46.910;6.354;2023-07-13T05:10:21;16.77;75.29
76102;SHT30;64830;46.910;6.354;2023-07-13T05:12:46;16.77;74.93
76102;SHT30;64830;46.910;6.354;2023-07-13T05:15:12;16.80;74.71
76102;SHT30;64830;46.910;6.354;2023-07-13T05:17:38;16.81;74.24
76102;SHT30;64830;46.910;6.354;2023-07-13T05:20:08;16.85;74.71
76102;SHT30;64830;46.910;6.354;2023-07-13T05:22:33;16.88;74.40
76102;SHT30;64830;46.910;6.354;2023-07-13T05:25:01;16.90;73.88
76102;SHT30;64830;46.910;6.354;2023-07-13T05:27:26;16.94;73.67
76102;SHT30;64830;46.910;6.354;2023-07-13T05:29:51;17.00;73.46
76102;SHT30;64830;46.910;6.354;2023-07-13T05:32:17;17.10;73.40
76102;SHT30;64830;46.910;6.354;2023-07-13T05:34:43;17.15;73.56
76102;SHT30;64830;46.910;6.354;2023-07-13T05:37:08;17.22;73.41
76102;SHT30;64830;46.910;6.354;2023-07-13T05:39:34;17.26;72.76
76102;SHT30;64830;46.910;6.354;2023-07-13T05:42:00;17.33;72.85
76102;SHT30;64830;46.910;6.354;2023-07-13T05:44:25;17.39;73.20
76102;SHT30;64830;46.910;6.354;2023-07-13T05:46:50;17.49;73.08
76102;SHT30;64830;46.910;6.354;2023-07-13T05:49:16;17.46;72.56
76102;SHT30;64830;46.910;6.354;2023-07-13T05:51:41;17.45;72.58
76102;SHT30;64830;46.910;6.354;2023-07-13T05:54:07;17.52;72.72
76102;SHT30;64830;46.910;6.354;2023-07-13T05:56:32;17.54;72.54
76102;SHT30;64830;46.910;6.354;2023-07-13T05:58:57;17.50;71.87
76102;SHT30;64830;46.910;6.354;2023-07-13T06:01:23;17.49;72.14
76102;SHT30;64830;46.910;6.354;2023-07-13T06:03:49;17.49;72.25
76102;SHT30;64830;46.910;6.354;2023-07-13T06:06:16;17.50;71.21
76102;SHT30;64830;46.910;6.354;2023-07-13T06:08:41;17.54;71.59
76102;SHT30;64830;46.910;6.354;2023-07-13T06:11:14;17.73;71.45
76102;SHT30;64830;46.910;6.354;2023-07-13T06:13:40;17.83;70.95
76102;SHT30;64830;46.910;6.354;2023-07-13T06:16:06;17.93;70.60
76102;SHT30;64830;46.910;6.354;2023-07-13T06:18:33;17.96;70.10
76102;SHT30;64830;46.910;6.354;2023-07-13T06:20:58;17.94;69.62
76102;SHT30;64830;46.910;6.354;2023-07-13T06:23:24;17.97;70.93
76102;SHT30;64830;46.910;6.354;2023-07-13T06:25:50;18.04;70.42
76102;SHT30;64830;46.910;6.354;2023-07-13T06:28:15;18.12;69.85
76102;SHT30;64830;46.910;6.354;2023-07-13T06:30:40;18.21;69.82
76102;SHT30;64830;46.910;6.354;2023-07-13T06:33:06;18.22;68.71
76102;SHT30;64830;46.910;6.354;2023-07-13T06:35:31;18.24;68.96
76102;SHT30;64830;46.910;6.354;2023-07-13T06:37:57;18.31;68.89
76102;SHT30;64830;46.910;6.354;2023-07-13T06:40:22;18.36;69.07
76102;SHT30;64830;46.910;6.354;2023-07-13T06:42:47;18.46;68.27
76102;SHT30;64830;46.910;6.354;2023-07-13T06:45:13;18.48;67.82
76102;SHT30;64830;46.910;6.354;2023-07-13T06:47:39;18.61;68.15
76102;SHT30;64830;46.910;6.354;2023-07-13T06:50:04;18.81;68.28
76102;SHT30;64830;46.910;6.354;2023-07-13T06:52:30;18.86;67.48
76102;SHT30;64830;46.910;6.354;2023-07-13T06:54:55;18.86;68.40
76102;SHT30;64830;46.910;6.354;2023-07-13T06:57:21;18.94;68.38
76102;SHT30;64830;46.910;6.354;2023-07-13T06:59:46;18.94;67.50
76102;SHT30;64830;46.910;6.354;2023-07-13T07:02:12;18.91;67.75
76102;SHT30;64830;46.910;6.354;2023-07-13T07:04:37;18.87;67.62
76102;SHT30;64830;46.910;6.354;2023-07-13T07:07:03;18.83;67.03
76102;SHT30;64830;46.910;6.354;2023-07-13T07:09:28;18.77;67.23
76102;SHT30;64830;46.910;6.354;2023-07-13T07:11:55;18.74;66.94
76102;SHT30;64830;46.910;6.354;2023-07-13T07:14:20;18.73;66.98
76102;SHT30;64830;46.910;6.354;2023-07-13T07:16:46;18.77;67.16
76102;SHT30;64830;46.910;6.354;2023-07-13T07:19:11;18.84;67.43
76102;SHT30;64830;46.910;6.354;2023-07-13T07:21:37;18.90;66.62
76102;SHT30;64830;46.910;6.354;2023-07-13T07:24:02;18.91;66.60
76102;SHT30;64830;46.910;6.354;2023-07-13T07:26:29;18.93;65.70
76102;SHT30;64830;46.910;6.354;2023-07-13T07:28:55;19.00;65.64
76102;SHT30;64830;46.910;6.354;2023-07-13T07:31:20;19.03;65.62
76102;SHT30;64830;46.910;6.354;2023-07-13T07:33:46;19.00;64.30
76102;SHT30;64830;46.910;6.354;2023-07-13T07:36:11;18.95;65.31
76102;SHT30;64830;46.910;6.354;2023-07-13T07:38:37;18.94;65.73
76102;SHT30;64830;46.910;6.354;2023-07-13T07:41:04;18.94;65.04
76102;SHT30;64830;46.910;6.354;2023-07-13T07:43:30;18.91;64.17
76102;SHT30;64830;46.910;6.354;2023-07-13T07:45:56;18.93;64.58
76102;SHT30;64830;46.910;6.354;2023-07-13T07:48:21;18.91;64.60
76102;SHT30;64830;46.910;6.354;2023-07-13T07:50:47;19.00;64.54
76102;SHT30;64830;46.910;6.354;2023-07-13T07:53:12;19.16;64.53
76102;SHT30;64830;46.910;6.354;2023-07-13T07:55:38;19.26;64.90
76102;SHT30;64830;46.910;6.354;2023-07-13T07:58:04;19.38;64.06
76102;SHT30;64830;46.910;6.354;2023-07-13T08:00:30;19.53;64.39
76102;SHT30;64830;46.910;6.354;2023-07-13T08:02:57;19.73;63.87
76102;SHT30;64830;46.910;6.354;2023-07-13T08:05:23;19.90;63.54
76102;SHT30;64830;46.910;6.354;2023-07-13T08:07:48;19.98;62.64
76102;SHT30;64830;46.910;6.354;2023-07-13T08:10:14;20.02;62.50
76102;SHT30;64830;46.910;6.354;2023-07-13T08:12:40;20.19;61.77
76102;SHT30;64830;46.910;6.354;2023-07-13T08:15:08;20.40;60.99
76102;SHT30;64830;46.910;6.354;2023-07-13T08:17:34;20.64;61.15
76102;SHT30;64830;46.910;6.354;2023-07-13T08:20:00;20.90;60.03
76102;SHT30;64830;46.910;6.354;2023-07-13T08:22:26;21.08;59.57
76102;SHT30;64830;46.910;6.354;2023-07-13T08:24:52;21.21;59.18
76102;SHT30;64830;46.910;6.354;2023-07-13T08:27:22;21.17;58.05
76102;SHT30;64830;46.910;6.354;2023-07-13T08:29:48;21.01;59.16
76102;SHT30;64830;46.910;6.354;2023-07-13T08:32:14;20.81;60.00
76102;SHT30;64830;46.910;6.354;2023-07-13T08:34:40;20.62;60.01
76102;SHT30;64830;46.910;6.354;2023-07-13T08:37:06;20.47;60.28
76102;SHT30;64830;46.910;6.354;2023-07-13T08:39:32;20.33;58.17
76102;SHT30;64830;46.910;6.354;2023-07-13T08:42:05;20.33;59.78
76102;SHT30;64830;46.910;6.354;2023-07-13T08:44:43;20.43;59.09
76102;SHT30;64830;46.910;6.354;2023-07-13T08:47:09;20.53;59.17
76102;SHT30;64830;46.910;6.354;2023-07-13T08:49:37;20.76;57.91
76102;SHT30;64830;46.910;6.354;2023-07-13T08:52:31;20.92;57.18
76102;SHT30;64830;46.910;6.354;2023-07-13T08:55:03;20.85;55.58
76102;SHT30;64830;46.910;6.354;2023-07-13T08:57:33;20.87;56.63
76102;SHT30;64830;46.910;6.354;2023-07-13T08:59:59;21.09;56.90
76102;SHT30;64830;46.910;6.354;2023-07-13T09:02:45;21.14;55.63
76102;SHT30;64830;46.910;6.354;2023-07-13T09:05:15;21.08;55.50
76102;SHT30;64830;46.910;6.354;2023-07-13T09:08:01;21.08;55.94
76102;SHT30;64830;46.910;6.354;2023-07-13T09:10:31;21.31;55.89
76102;SHT30;64830;46.910;6.354;2023-07-13T09:15:59;21.38;52.52
76102;SHT30;64830;46.910;6.354;2023-07-13T09:18:33;21.21;53.01
76102;SHT30;64830;46.910;6.354;2023-07-13T09:21:05;21.05;53.21
76102;SHT30;64830;46.910;6.354;2023-07-13T09:23:35;21.04;53.74
76102;SHT30;64830;46.910;6.354;2023-07-13T09:26:09;21.18;54.01
76102;SHT30;64830;46.910;6.354;2023-07-13T09:28:42;21.24;51.92
76102;SHT30;64830;46.910;6.354;2023-07-13T09:31:27;21.32;50.71
76102;SHT30;64830;46.910;6.354;2023-07-13T09:33:55;21.39;52.00
76102;SHT30;64830;46.910;6.354;2023-07-13T09:36:24;21.53;52.75
76102;SHT30;64830;46.910;6.354;2023-07-13T09:39:14;21.59;52.93
76102;SHT30;64830;46.910;6.354;2023-07-13T09:44:13;21.57;52.83
76102;SHT30;64830;46.910;6.354;2023-07-13T09:46:44;21.70;53.58
76102;SHT30;64830;46.910;6.354;2023-07-13T09:49:11;21.86;52.53
76102;SHT30;64830;46.910;6.354;2023-07-13T09:51:38;22.02;52.33
76102;SHT30;64830;46.910;6.354;2023-07-13T09:54:04;22.09;52.69
76102;SHT30;64830;46.910;6.354;2023-07-13T09:56:30;22.02;52.18
76102;SHT30;64830;46.910;6.354;2023-07-13T09:58:56;22.00;51.02
76102;SHT30;64830;46.910;6.354;2023-07-13T10:01:40;21.98;51.53
76102;SHT30;64830;46.910;6.354;2023-07-13T10:04:13;22.14;51.20
76102;SHT30;64830;46.910;6.354;2023-07-13T10:06:40;22.39;51.11
76102;SHT30;64830;46.910;6.354;2023-07-13T10:09:09;22.36;48.77
76102;SHT30;64830;46.910;6.354;2023-07-13T10:11:36;22.35;49.98
76102;SHT30;64830;46.910;6.354;2023-07-13T10:14:22;22.21;50.14
76102;SHT30;64830;46.910;6.354;2023-07-13T10:16:59;22.08;47.93
76102;SHT30;64830;46.910;6.354;2023-07-13T10:19:30;22.00;48.69
76102;SHT30;64830;46.910;6.354;2023-07-13T10:22:04;22.15;49.25
76102;SHT30;64830;46.910;6.354;2023-07-13T10:24:37;22.33;50.92
76102;SHT30;64830;46.910;6.354;2023-07-13T10:29:39;22.61;52.13
76102;SHT30;64830;46.910;6.354;2023-07-13T10:32:11;22.64;50.93
76102;SHT30;64830;46.910;6.354;2023-07-13T10:34:37;22.52;50.80
76102;SHT30;64830;46.910;6.354;2023-07-13T10:37:05;22.42;51.54
76102;SHT30;64830;46.910;6.354;2023-07-13T10:39:32;22.43;51.75
76102;SHT30;64830;46.910;6.354;2023-07-13T10:42:05;22.55;52.05
76102;SHT30;64830;46.910;6.354;2023-07-13T10:44:33;22.71;49.60
76102;SHT30;64830;46.910;6.354;2023-07-13T10:47:01;22.90;51.21
76102;SHT30;64830;46.910;6.354;2023-07-13T10:49:29;22.98;47.62
76102;SHT30;64830;46.910;6.354;2023-07-13T10:51:55;23.11;47.83
76102;SHT30;64830;46.910;6.354;2023-07-13T10:54:26;23.19;47.08
76102;SHT30;64830;46.910;6.354;2023-07-13T10:59:39;23.22;47.86
76102;SHT30;64830;46.910;6.354;2023-07-13T11:02:15;23.33;47.37
76102;SHT30;64830;46.910;6.354;2023-07-13T11:04:45;23.32;46.65
76102;SHT30;64830;46.910;6.354;2023-07-13T11:07:28;23.26;46.89
76102;SHT30;64830;46.910;6.354;2023-07-13T11:09:56;23.31;48.66
76102;SHT30;64830;46.910;6.354;2023-07-13T11:25:32;23.63;43.06
76102;SHT30;64830;46.910;6.354;2023-07-13T11:33:12;23.69;46.37
76102;SHT30;64830;46.910;6.354;2023-07-13T11:35:51;23.78;45.31
76102;SHT30;64830;46.910;6.354;2023-07-13T11:38:38;23.85;45.43
76102;SHT30;64830;46.910;6.354;2023-07-13T11:43:38;23.62;45.45
76102;SHT30;64830;46.910;6.354;2023-07-13T11:46:24;23.66;44.94
76102;SHT30;64830;46.910;6.354;2023-07-13T11:48:50;23.78;45.07
76102;SHT30;64830;46.910;6.354;2023-07-13T11:51:29;23.80;43.97
76102;SHT30;64830;46.910;6.354;2023-07-13T11:53:58;23.70;44.00
76102;SHT30;64830;46.910;6.354;2023-07-13T11:56:25;23.66;44.49
76102;SHT30;64830;46.910;6.354;2023-07-13T11:58:54;23.76;43.14
76102;SHT30;64830;46.910;6.354;2023-07-13T12:01:29;23.91;44.69
76102;SHT30;64830;46.910;6.354;2023-07-13T12:04:00;24.05;45.04
76102;SHT30;64830;46.910;6.354;2023-07-13T12:06:33;24.07;42.77
76102;SHT30;64830;46.910;6.354;2023-07-13T12:09:00;23.98;43.98
76102;SHT30;64830;46.910;6.354;2023-07-13T12:11:28;24.01;44.16
76102;SHT30;64830;46.910;6.354;2023-07-13T12:13:54;24.00;43.20
76102;SHT30;64830;46.910;6.354;2023-07-13T12:16:26;23.94;43.31
76102;SHT30;64830;46.910;6.354;2023-07-13T12:18:53;24.01;44.17
76102;SHT30;64830;46.910;6.354;2023-07-13T12:21:22;24.04;43.55
76102;SHT30;64830;46.910;6.354;2023-07-13T12:23:50;24.17;42.44
76102;SHT30;64830;46.910;6.354;2023-07-13T12:26:18;24.21;44.72
76102;SHT30;64830;46.910;6.354;2023-07-13T12:28:54;24.30;44.94
76102;SHT30;64830;46.910;6.354;2023-07-13T12:34:12;24.46;41.56
76102;SHT30;64830;46.910;6.354;2023-07-13T12:36:41;24.51;40.99
76102;SHT30;64830;46.910;6.354;2023-07-13T12:39:16;24.57;42.63
76102;SHT30;64830;46.910;6.354;2023-07-13T12:41:44;24.62;41.97
76102;SHT30;64830;46.910;6.354;2023-07-13T12:44:18;24.63;41.13
76102;SHT30;64830;46.910;6.354;2023-07-13T12:46:55;24.55;40.40
76102;SHT30;64830;46.910;6.354;2023-07-13T12:49:25;24.57;41.30
76102;SHT30;64830;46.910;6.354;2023-07-13T12:51:56;24.60;41.86
76102;SHT30;64830;46.910;6.354;2023-07-13T12:54:23;24.67;41.54
76102;SHT30;64830;46.910;6.354;2023-07-13T12:56:51;24.72;41.66
76102;SHT30;64830;46.910;6.354;2023-07-13T12:59:20;24.72;40.40
76102;SHT30;64830;46.910;6.354;2023-07-13T13:01:48;24.66;41.14
76102;SHT30;64830;46.910;6.354;2023-07-13T13:04:19;24.70;40.54
76102;SHT30;64830;46.910;6.354;2023-07-13T13:06:47;24.72;41.17
76102;SHT30;64830;46.910;6.354;2023-07-13T13:09:14;24.66;41.69
76102;SHT30;64830;46.910;6.354;2023-07-13T13:11:40;24.67;41.14
76102;SHT30;64830;46.910;6.354;2023-07-13T13:14:06;24.66;41.89
76102;SHT30;64830;46.910;6.354;2023-07-13T13:16:35;24.67;42.36
76102;SHT30;64830;46.910;6.354;2023-07-13T13:21:39;24.56;41.73
76102;SHT30;64830;46.910;6.354;2023-07-13T13:24:17;24.35;43.14
76102;SHT30;64830;46.910;6.354;2023-07-13T13:26:43;24.18;42.79
76102;SHT30;64830;46.910;6.354;2023-07-13T13:29:31;24.12;43.63
76102;SHT30;64830;46.910;6.354;2023-07-13T13:31:56;24.24;43.38
76102;SHT30;64830;46.910;6.354;2023-07-13T13:34:23;24.22;41.62
76102;SHT30;64830;46.910;6.354;2023-07-13T13:36:49;24.12;42.17
76102;SHT30;64830;46.910;6.354;2023-07-13T13:39:23;23.90;42.05
76102;SHT30;64830;46.910;6.354;2023-07-13T13:41:50;23.62;42.08
76102;SHT30;64830;46.910;6.354;2023-07-13T13:44:16;23.53;42.50
76102;SHT30;64830;46.910;6.354;2023-07-13T13:46:45;23.52;42.83
76102;SHT30;64830;46.910;6.354;2023-07-13T13:49:17;23.46;42.98
76102;SHT30;64830;46.910;6.354;2023-07-13T13:51:44;23.42;43.67
76102;SHT30;64830;46.910;6.354;2023-07-13T13:54:14;23.52;43.21
76102;SHT30;64830;46.910;6.354;2023-07-13T13:56:42;23.78;43.11
76102;SHT30;64830;46.910;6.354;2023-07-13T13:59:08;23.98;41.74
76102;SHT30;64830;46.910;6.354;2023-07-13T14:01:34;24.26;41.17
76102;SHT30;64830;46.910;6.354;2023-07-13T14:04:00;24.39;41.07
76102;SHT30;64830;46.910;6.354;2023-07-13T14:06:26;24.53;41.77
76102;SHT30;64830;46.910;6.354;2023-07-13T14:08:51;24.72;42.36
76102;SHT30;64830;46.910;6.354;2023-07-13T14:11:18;24.94;41.50
76102;SHT30;64830;46.910;6.354;2023-07-13T14:13:48;25.12;40.96
76102;SHT30;64830;46.910;6.354;2023-07-13T14:16:17;25.28;40.99
76102;SHT30;64830;46.910;6.354;2023-07-13T14:18:46;25.38;40.91
76102;SHT30;64830;46.910;6.354;2023-07-13T14:21:21;25.43;40.25
76102;SHT30;64830;46.910;6.354;2023-07-13T14:23:47;25.41;40.53
76102;SHT30;64830;46.910;6.354;2023-07-13T14:26:22;25.38;39.32
76102;SHT30;64830;46.910;6.354;2023-07-13T14:28:52;25.45;40.27
76102;SHT30;64830;46.910;6.354;2023-07-13T14:31:18;25.43;41.20
76102;SHT30;64830;46.910;6.354;2023-07-13T14:33:44;25.35;40.21
76102;SHT30;64830;46.910;6.354;2023-07-13T14:36:34;25.35;40.76
76102;SHT30;64830;46.910;6.354;2023-07-13T14:39:10;25.36;40.21
76102;SHT30;64830;46.910;6.354;2023-07-13T14:41:36;25.45;39.41
76102;SHT30;64830;46.910;6.354;2023-07-13T14:44:10;25.47;39.80
76102;SHT30;64830;46.910;6.354;2023-07-13T14:46:36;25.50;40.18
76102;SHT30;64830;46.910;6.354;2023-07-13T14:49:06;25.42;40.50
76102;SHT30;64830;46.910;6.354;2023-07-13T14:51:33;25.24;39.71
76102;SHT30;64830;46.910;6.354;2023-07-13T14:54:03;25.08;41.48
76102;SHT30;64830;46.910;6.354;2023-07-13T14:56:29;24.93;40.40
76102;SHT30;64830;46.910;6.354;2023-07-13T14:58:55;24.66;40.08
76102;SHT30;64830;46.910;6.354;2023-07-13T15:01:21;24.40;40.71
76102;SHT30;64830;46.910;6.354;2023-07-13T15:03:49;24.43;41.32
76102;SHT30;64830;46.910;6.354;2023-07-13T15:06:15;24.38;40.63
76102;SHT30;64830;46.910;6.354;2023-07-13T15:08:41;24.30;40.51
76102;SHT30;64830;46.910;6.354;2023-07-13T15:11:07;24.28;41.49
76102;SHT30;64830;46.910;6.354;2023-07-13T15:13:33;24.36;40.85
76102;SHT30;64830;46.910;6.354;2023-07-13T15:16:00;24.48;41.08
76102;SHT30;64830;46.910;6.354;2023-07-13T15:18:26;24.52;39.90
76102;SHT30;64830;46.910;6.354;2023-07-13T15:20:52;24.46;41.17
76102;SHT30;64830;46.910;6.354;2023-07-13T15:23:22;24.52;41.17
76102;SHT30;64830;46.910;6.354;2023-07-13T15:25:48;24.64;40.26
76102;SHT30;64830;46.910;6.354;2023-07-13T15:28:14;24.79;40.61
76102;SHT30;64830;46.910;6.354;2023-07-13T15:30:48;24.77;39.47
76102;SHT30;64830;46.910;6.354;2023-07-13T15:35:47;24.90;40.01
76102;SHT30;64830;46.910;6.354;2023-07-13T15:38:21;24.93;40.58
76102;SHT30;64830;46.910;6.354;2023-07-13T15:40:51;25.01;40.95
76102;SHT30;64830;46.910;6.354;2023-07-13T15:43:17;25.08;40.16
76102;SHT30;64830;46.910;6.354;2023-07-13T15:45:43;25.15;40.46
76102;SHT30;64830;46.910;6.354;2023-07-13T15:48:22;25.27;40.79
76102;SHT30;64830;46.910;6.354;2023-07-13T15:50:50;25.36;39.76
76102;SHT30;64830;46.910;6.354;2023-07-13T15:53:25;25.50;40.68
76102;SHT30;64830;46.910;6.354;2023-07-13T15:55:52;25.66;40.18
76102;SHT30;64830;46.910;6.354;2023-07-13T15:58:18;25.79;38.81
76102;SHT30;64830;46.910;6.354;2023-07-13T16:00:44;25.80;38.97
76102;SHT30;64830;46.910;6.354;2023-07-13T16:03:10;25.73;38.78
76102;SHT30;64830;46.910;6.354;2023-07-13T16:05:36;25.69;38.16
76102;SHT30;64830;46.910;6.354;2023-07-13T16:08:03;25.76;39.59
76102;SHT30;64830;46.910;6.354;2023-07-13T16:10:32;25.86;38.43
76102;SHT30;64830;46.910;6.354;2023-07-13T16:12:59;25.89;38.25